Lamont, Florida
Current Conditions -  °F | °C
As of 10:35 PM on Saturday 22 Nov 2014 (Local Time) from K40J Reporting Station
Heavy Rain Heavy Rain  
Wind Chill: 65°   Ceiling: 1100
Heat Index: 65°   Visibility: 4mi
Dew Point: 64°   Wind: 8mph
Humidity: 97%   Direction: 100°E
Pressure: 30.11"   Gusts: NA
Location:  30.38°N, 83.81°W
Report Text: K40J 230335Z AUTO 10007KT 4SM +RA SCT005 BKN011 OVC019 18/18 A3011 RMK AO2 P0004 T01830178
Loading
Personal Weather Stations






























Interactive Weather Map New forecast layout! Learn more

10-Day Weather Forecast

Advertisements
Track Severe Weather on mobile